LFPB/LBG METAR and TAF weather

Enter ICAO airport designator
Station Type Date Time Source
LFPB METAR 2021/10/22 19:00 UTC NOAA

LFPB 221900Z AUTO 24005KT CAVOK 10/08 Q1025 NOSIG


Station Type Date Time Source
LFPB Decoded METAR 2021/10/22 19:00 UTC NOAA

Paris / Le Bourget, France (LFPB) 48-58N 002-27E 65M
Oct 22, 2021 - 03:00 PM EDT / 2021.10.22 1900 UTC
Wind: from the WSW (240 degrees) at 6 MPH (5 KT):0
Visibility: greater than 7 mile(s):0
Temperature: 50 F (10 C)
Dew Point: 46 F (8 C)
Relative Humidity: 87%
Pressure (altimeter): 30.27 in. Hg (1025 hPa)
ob: LFPB 221900Z AUTO 24005KT CAVOK 10/08 Q1025 NOSIG
cycle: 19

Station Type Date Time Source
LFPB TAF 2021/10/22 18:21 UTC NOAA

TAF LFPB 221700Z 2218/2318 27007KT 9999 FEW040 BKN050 PROB40 2305/2309 3000 BR

Example: see airport list